EGGW/LTN METAR and TAF weather

Enter ICAO airport designator
Station Type Date Time Source
EGGW METAR 2020/01/20 12:50 UTC NOAA

EGGW 201250Z AUTO 28007KT 9999 NCD 06/02 Q1047


Station Type Date Time Source
EGGW Decoded METAR 2020/01/20 12:50 UTC NOAA

Luton Airport , United Kingdom (EGGW) 51-52N 000-22W
Jan 20, 2020 - 07:50 AM EST / 2020.01.20 1250 UTC
Wind: from the W (280 degrees) at 8 MPH (7 KT):0
Visibility: greater than 7 mile(s):0
Temperature: 42 F (6 C)
Dew Point: 35 F (2 C)
Relative Humidity: 75%
Pressure (altimeter): 30.92 in. Hg (1047 hPa)
ob: EGGW 201250Z AUTO 28007KT 9999 NCD 06/02 Q1047
cycle: 13

Station Type Date Time Source
EGGW TAF 2020/01/20 12:09 UTC NOAA

TAF EGGW 201103Z 2012/2112 27004KT CAVOK PROB30
TEMPO 2018/2021 8000
BECMG 2021/2024 8000
TEMPO 2100/2110 4000 MIFG BR PROB30 2102/2110 0600 FZFG BKN000
BECMG 2110/2112 9999

Example: see airport list